createdAt,value
2022-11-08T06:52:20.172Z,56.29
2022-11-08T06:54:48.799Z,56.06
2022-11-08T06:57:16.719Z,55.55
2022-11-08T06:59:45.325Z,56.27
2022-11-08T07:02:15.526Z,55.55
2022-11-08T07:04:44.207Z,55.76
2022-11-08T07:07:12.975Z,55.33
2022-11-08T07:09:44.396Z,55.77
2022-11-08T07:12:12.308Z,56.26
2022-11-08T07:14:40.778Z,55.88
2022-11-08T07:17:10.414Z,55.91
2022-11-08T07:19:38.438Z,55.62
2022-11-08T07:22:06.983Z,55.61
2022-11-08T07:24:35.717Z,55.28
2022-11-08T07:27:05.230Z,55.44
2022-11-08T07:29:33.774Z,55.41
2022-11-08T07:32:03.268Z,55.06
2022-11-08T07:34:31.646Z,55.76
2022-11-08T07:37:01.148Z,55.56
2022-11-08T07:39:29.098Z,55.24
2022-11-08T07:41:59.838Z,55.22
2022-11-08T07:44:30.182Z,55.13
2022-11-08T07:46:58.239Z,55.17
2022-11-08T07:49:26.629Z,55.56
2022-11-08T07:54:43.913Z,55.55
2022-11-08T07:57:12.204Z,55.34
2022-11-08T07:59:42.114Z,55.40
2022-11-08T08:02:11.043Z,55.52
2022-11-08T08:04:39.634Z,55.52
2022-11-08T08:07:08.518Z,55.59
2022-11-08T08:09:37.254Z,55.70
2022-11-08T08:12:05.633Z,55.67
2022-11-08T08:14:33.920Z,55.63
2022-11-08T08:17:03.292Z,55.57
2022-11-08T08:19:32.127Z,55.47
2022-11-08T08:22:03.047Z,55.78
2022-11-08T08:24:31.503Z,55.28
2022-11-08T08:26:59.550Z,54.97
2022-11-08T08:29:27.968Z,55.30
2022-11-08T08:31:56.527Z,55.26
2022-11-08T08:34:26.038Z,55.08
2022-11-08T08:36:54.361Z,55.44
2022-11-08T08:39:22.813Z,55.60
2022-11-08T08:41:51.557Z,54.87
2022-11-08T08:44:19.643Z,54.95
2022-11-08T08:46:47.679Z,54.77
2022-11-08T08:49:16.170Z,54.95
2022-11-08T08:51:46.403Z,54.76
2022-11-08T08:54:15.407Z,54.94
2022-11-08T08:56:43.636Z,54.96
2022-11-08T09:02:01.363Z,54.86
2022-11-08T09:04:29.892Z,54.40
2022-11-08T09:07:00.228Z,54.30
2022-11-08T09:09:28.504Z,54.68
2022-11-08T09:11:57.027Z,54.39
2022-11-08T09:14:26.403Z,54.70
2022-11-08T09:16:54.912Z,54.84
2022-11-08T09:19:22.846Z,54.49
2022-11-08T09:21:51.090Z,54.76
2022-11-08T09:24:20.682Z,55.04
2022-11-08T09:26:48.853Z,54.72
2022-11-08T09:29:17.133Z,54.88
2022-11-08T09:31:45.297Z,54.21
2022-11-08T09:34:19.195Z,54.07
2022-11-08T09:36:49.995Z,54.40
2022-11-08T09:39:18.679Z,54.02
2022-11-08T09:42:12.612Z,54.45
2022-11-08T09:45:09.071Z,54.32
2022-11-08T09:47:41.504Z,54.02
2022-11-08T09:50:18.304Z,53.84
2022-11-08T09:52:52.822Z,54.63
2022-11-08T09:55:28.223Z,54.36
2022-11-08T09:58:05.834Z,54.67
2022-11-08T10:00:43.884Z,54.31
2022-11-08T10:03:18.845Z,54.20
2022-11-08T10:05:59.387Z,53.87
2022-11-08T10:08:34.306Z,54.04
2022-11-08T10:11:16.592Z,54.16
2022-11-08T10:14:01.979Z,54.17
2022-11-08T10:16:39.916Z,54.17
2022-11-08T10:19:29.611Z,54.31
2022-11-08T10:22:01.048Z,54.52
2022-11-08T10:24:38.028Z,53.98
2022-11-08T10:27:16.088Z,54.31
2022-11-08T10:29:47.666Z,54.78
2022-11-08T10:32:21.548Z,54.48
2022-11-08T10:34:58.542Z,54.46
2022-11-08T10:37:27.611Z,54.44
2022-11-08T10:40:01.844Z,54.42
2022-11-08T10:42:50.372Z,54.58
2022-11-08T10:45:20.490Z,54.07
2022-11-08T10:47:54.632Z,54.12
2022-11-08T10:50:42.564Z,54.41
2022-11-08T10:53:20.382Z,54.38
2022-11-08T10:55:52.457Z,53.67
2022-11-08T10:58:33.968Z,53.98
2022-11-08T11:01:08.148Z,53.71
2022-11-08T11:03:37.638Z,53.90
2022-11-08T11:06:07.130Z,54.00
2022-11-08T11:08:36.240Z,53.73
2022-11-08T11:11:25.682Z,54.02
2022-11-08T11:14:19.565Z,54.16
2022-11-08T11:17:00.155Z,53.72
2022-11-08T11:19:31.544Z,53.73
2022-11-08T11:22:04.912Z,53.63
2022-11-08T11:24:40.395Z,53.81
2022-11-08T11:27:23.057Z,53.39
2022-11-08T11:29:51.545Z,53.69
2022-11-08T11:32:26.683Z,53.76
2022-11-08T11:34:58.413Z,53.44
2022-11-08T11:37:36.116Z,53.80
2022-11-08T11:40:15.957Z,53.56
2022-11-08T11:42:55.634Z,53.65
2022-11-08T11:45:38.039Z,53.60
2022-11-08T11:48:16.882Z,53.74
2022-11-08T11:50:52.785Z,54.05
2022-11-08T11:53:24.714Z,53.89
2022-11-08T11:56:29.717Z,54.19
2022-11-08T11:59:23.994Z,53.93
2022-11-08T12:02:12.770Z,54.32
2022-11-08T12:05:04.872Z,53.76
2022-11-08T12:07:36.682Z,54.33
2022-11-08T12:10:27.029Z,54.27
2022-11-08T12:13:04.954Z,54.63
2022-11-08T12:15:41.627Z,54.40
2022-11-08T12:18:43.569Z,54.42
2022-11-08T12:21:15.547Z,54.33
2022-11-08T12:24:22.656Z,54.49
2022-11-08T12:27:02.388Z,54.33
2022-11-08T12:29:38.663Z,54.36
2022-11-08T12:32:24.089Z,54.60
2022-11-08T12:35:08.751Z,54.26
2022-11-08T12:37:57.823Z,54.77
2022-11-08T12:40:32.141Z,54.52
2022-11-08T12:43:10.443Z,54.36
2022-11-08T12:46:18.834Z,54.40
2022-11-08T12:49:25.785Z,54.74
2022-11-08T12:52:10.313Z,54.64
2022-11-08T12:54:48.783Z,54.71
2022-11-08T12:57:28.037Z,54.71
2022-11-08T13:00:03.492Z,55.07
2022-11-08T13:02:48.101Z,54.75
2022-11-08T13:05:26.237Z,54.73
2022-11-08T13:08:00.753Z,54.67
2022-11-08T13:10:39.112Z,54.67
2022-11-08T13:13:27.713Z,55.05
2022-11-08T13:16:17.481Z,54.74
2022-11-08T13:18:49.866Z,54.89
2022-11-08T13:21:39.995Z,55.30
2022-11-08T13:24:44.535Z,55.21
2022-11-08T13:27:34.898Z,55.13
2022-11-08T13:30:27.456Z,55.12
2022-11-08T13:33:06.067Z,55.19
2022-11-08T13:35:40.847Z,55.18
2022-11-08T13:38:23.219Z,55.62
2022-11-08T13:41:13.701Z,55.45
2022-11-08T13:43:47.059Z,55.68
2022-11-08T13:46:50.138Z,55.70
2022-11-08T13:49:30.527Z,55.52
2022-11-08T13:52:45.574Z,55.76
2022-11-08T13:56:00.425Z,55.54
2022-11-08T13:58:39.056Z,55.32
2022-11-08T14:01:37.500Z,55.61
2022-11-08T14:04:28.347Z,55.45
2022-11-08T14:07:05.644Z,55.37
2022-11-08T14:09:50.159Z,55.19
2022-11-08T14:12:30.259Z,55.49
2022-11-08T14:15:10.580Z,55.78
2022-11-08T14:17:48.426Z,55.84
2022-11-08T14:20:45.065Z,55.65
2022-11-08T14:23:34.685Z,55.67
2022-11-08T14:26:13.581Z,55.83
2022-11-08T14:28:43.076Z,55.84
2022-11-08T14:31:28.572Z,55.87
2022-11-08T14:33:58.814Z,55.91
2022-11-08T14:36:29.100Z,55.80
2022-11-08T14:39:09.424Z,55.76
2022-11-08T14:41:38.015Z,55.65
2022-11-08T14:44:06.391Z,55.85
2022-11-08T14:46:38.274Z,55.86
2022-11-08T14:49:19.722Z,55.87
2022-11-08T14:51:48.242Z,55.79
2022-11-08T14:54:25.300Z,55.67
2022-11-08T14:56:55.137Z,56.17
2022-11-08T14:59:28.376Z,55.84
2022-11-08T15:01:58.911Z,55.68
2022-11-08T15:04:28.348Z,55.81
2022-11-08T15:07:13.089Z,55.84
2022-11-08T15:09:41.121Z,55.87
2022-11-08T15:12:19.237Z,56.07
2022-11-08T15:14:58.452Z,56.23
2022-11-08T15:17:36.803Z,56.20
2022-11-08T15:20:21.285Z,56.15
2022-11-08T15:22:52.885Z,55.94
2022-11-08T15:25:33.669Z,56.33
2022-11-08T15:28:17.097Z,56.04
2022-11-08T15:30:50.268Z,56.47
2022-11-08T15:38:53.420Z,56.27
2022-11-08T15:41:55.706Z,56.42
2022-11-08T15:44:52.826Z,56.53
